Poling, Indiana
Current Conditions -  °F | °C
As of 11:35 AM on Friday 31 Oct 2014 (Local Time) from KVES Reporting Station
Moderate Rain Moderate Rain  
Wind Chill:   Ceiling: 1100
Heat Index:   Visibility: 7mi
Dew Point:   Wind: 12mph
Humidity: 100%   Direction: 320°NW
Pressure: 29.92"   Gusts: 18mph
Location:  40.5419°N, 84.8968°W
Report Text: KVES 311535Z AUTO 32010G16KT 7SM RA BKN011 OVC016 05/05 A2992 RMK AO2 P0001
Loading
Personal Weather Stations






























Interactive Weather Map
Tropical Storm Tracking
New forecast layout! Learn more

10-Day Weather Forecast

Advertisements
Track Severe Weather on mobile